Strona główna
METAR-TAF:

METAR-TAF

Lotnisko :

Port lotniczy Pula

Pula, Chorwacja

Szerokość geograficzna: 44-54N, Długość geograficzna: 013-55E, wysokość: 63 m

Aktualna obserwacja pogody

Raport powstał 16 minut temu, godzina 22:30 UTC
Wiatr 9 kt od północny wschód, zmienny między północ i wschód
Temperatura 13°C
Wilgotność 33%
Ciśnienie 1022 hPa
Widzialność 10 km lub więcej
Brak chmur poniżej 1500 m i brak chmur cumulonimbus

METAR: LDPL 042230Z 04009KT 010V080 CAVOK 13/M03 Q1022

czas: 00:46 (22:46 UTC)

Prognoza

Raport powstał 5 godziny i 21 minut temu, godzina 17:25 UTC
Prognoza ważna od 04 godzina 18 UTC do 05 godzina 18 UTC
Wiatr 15 kt od wschodnio-północny wschód
Widzialność 10 km lub więcej
Brak chmur poniżej 1500 m i brak chmur cumulonimbus
Przejściowo
od 04 godzina 18 UTC do 05 godzina 18 UTC
Wiatr 20 kt od wschodnio-północny wschód w porywach dochodzący do 30 kt

TAF: LDPL 041725Z 0418/0518 06015KT CAVOK TX19/0513Z TN10/0505Z TEMPO 0418/0518 06020G30KT

Obserwacja i prognoza pogody dla ponad 4000 lotnisk (raport METAR i TAF).

Dostępne stacje oznaczono żółtymi i czerwonymi punktami na mapie.

Najedź kursorem aby zobaczyć nazwę stacji.

Kliknij aby zobaczyć obserwacje i prognozy pogody.

Aby zmienić mapę: kliknij na zielony przycisk z czarnym krzyżykiem, aby powiększyć; na zielony przycisk z myślnikiem, aby pomniejszyć; na zielone strzałki, aby przejść do map sąsiednich.


METAR-TAF: